METAR rapporten vliegvelden

   
EHVK - Volkel Rnlafb, Netherlands
Afstand tot: ZW 18 km
Gewijzigd: 25-05-2019 17:55
Bewolking  
Bewolking  
   Wind: Noorden 7.4 km/h
Wind: Noorden 7.4 km/h
Temperatuur: 18°C
Dauwpunt: 8°C
Vochtigheid: 52%
Barometer: 1017 hPa
Bewolking: Bewolking
Zicht: meer dan 10 km
Bewolking: Grotendeels bewolkt 4100 ft,
Bewolking 4800 ft
EHVK 251555Z AUTO 36004KT 320V050 9999 BKN041 OVC048 18/08 Q1017 BLU
EDLV - Niederrhein, Germany
Afstand tot: ZO 25 km
Gewijzigd: 25-05-2019 17:50
Licht bewolkt  
Licht bewolkt  
   Wind: NW 9.3 km/h
Wind: NW 9.3 km/h
Temperatuur: 18°C
Dauwpunt: 8°C
Vochtigheid: 52%
Barometer: 1017 hPa
Bewolking: Licht bewolkt
Zicht: meer dan 10 km
Bewolking: Licht bewolkt 4500 ft
EDLV 251550Z 31005KT 270V340 9999 FEW045 18/08 Q1017
EHDL - Deelen Rnlafb, Netherlands
Afstand tot: N 35 km
Gewijzigd: 25-05-2019 17:55
Bewolking  
Bewolking  
   Wind: WNW 9.3 km/h
Wind: WNW 9.3 km/h
Temperatuur: 17°C
Dauwpunt: 7°C
Vochtigheid: 52%
Barometer: 1017 hPa
Bewolking: Bewolking
Zicht: meer dan 10 km
Bewolking: Bewolking 5900 ft
EHDL 251555Z AUTO 29005KT 230V360 9999 OVC059 17/07 Q1017 BLU
EHEH - Eindhoven Rnlafb, Netherlands
Afstand tot: ZW 48 km
Gewijzigd: 25-05-2019 17:55
Bewolking  
Bewolking  
   Wind: NW 5.6 km/h
Wind: NW 5.6 km/h
Temperatuur: 18°C
Dauwpunt: 8°C
Vochtigheid: 52%
Barometer: 1017 hPa
Bewolking: Bewolking
Zicht: meer dan 10 km
Bewolking: Gedeeltelijk bewolkt 7000 ft,
Grotendeels bewolkt 8100 ft,
Bewolking 8700 ft
EHEH 251555Z AUTO 31003KT 300V040 9999 SCT070 BKN081 OVC087 18/08 Q1017 BLU VRB04KT 9999 SCT035 SCT070
EHGR - Gilze-Rijen Rnla, Netherlands
Afstand tot: WZW 70 km
Gewijzigd: 25-05-2019 17:55
Grotendeels bewolkt  
Grotendeels bewolkt  
   Wind: varieert 9.3 km/h
Wind: varieert 9.3 km/h
Temperatuur: 19°C
Dauwpunt: 8°C
Vochtigheid: 49%
Barometer: 1017 hPa
Bewolking: Grotendeels bewolkt
Zicht: meer dan 10 km
Bewolking: Grotendeels bewolkt 4000 ft,
Grotendeels bewolkt 4500 ft,
Grotendeels bewolkt 5200 ft
EHGR 251555Z AUTO VRB05KT 9999 BKN040 BKN045 BKN052 19/08 Q1017 BLU
EBBL - Kleine-Brogel(Ba, Belgium
Afstand tot: ZZW 71 km
Gewijzigd: 25-05-2019 17:55
Grotendeels bewolkt  
Grotendeels bewolkt  
   Wind: NNO 7.4 km/h
Wind: NNO 7.4 km/h
Temperatuur: 18°C
Dauwpunt: 8°C
Vochtigheid: 52%
Barometer: 1017 hPa
Bewolking: Grotendeels bewolkt
Zicht: meer dan 10 km
Bewolking: Gedeeltelijk bewolkt 4200 ft,
Grotendeels bewolkt 9200 ft
EBBL 251555Z AUTO 03004KT 9999 SCT042/// BKN092/// 18/08 Q1017 BLU

Script ontwikkeld door  Saratoga-weather.org Aangepast voor de template door  Weerstation Leuven

U vindt ons ook hier:

Het Weer Aktueel

European Weather Network

WeatherCloud

Weather Underground

Benelux Weer Netwerk

Apparatuur in gebruik:

Weerstation
Davis VP2

Weerprogramma
consoleWD

Weercomputer
Raspberry

Webleverancier
Stef van Bakel koeltechniek

Davis VP2

consoleWD

Raspberry

Stef van Bakel koeltechniek